createdAt,value
2018-06-22T00:02:19.257Z,2.50
2018-06-22T00:04:48.280Z,4.23
2018-06-22T00:07:17.360Z,7.57
2018-06-22T00:09:46.475Z,2.90
2018-06-22T00:12:15.474Z,5.10
2018-06-22T00:14:44.490Z,2.50
2018-06-22T00:17:13.485Z,2.53
2018-06-22T00:19:42.641Z,4.10
2018-06-22T00:22:11.429Z,3.13
2018-06-22T00:24:40.993Z,1.73
2018-06-22T00:27:10.161Z,3.80
2018-06-22T00:29:39.114Z,4.80
2018-06-22T00:32:08.090Z,3.23
2018-06-22T00:34:36.719Z,4.17
2018-06-22T00:37:05.420Z,5.20
2018-06-22T00:39:34.059Z,3.47
2018-06-22T00:42:02.807Z,1.63
2018-06-22T00:44:31.526Z,1.93
2018-06-22T00:47:00.175Z,3.73
2018-06-22T00:49:28.843Z,3.67
2018-06-22T00:51:57.484Z,6.20
2018-06-22T00:54:26.160Z,4.80
2018-06-22T00:56:54.823Z,5.87
2018-06-22T00:59:23.496Z,3.17
2018-06-22T01:01:52.325Z,4.85
2018-06-22T01:04:21.041Z,5.68
2018-06-22T01:06:49.713Z,4.25
2018-06-22T01:09:18.417Z,2.63
2018-06-22T01:11:47.082Z,4.70
2018-06-22T01:14:17.082Z,2.33
2018-06-22T01:16:46.007Z,4.97
2018-06-22T01:19:15.570Z,1.80
2018-06-22T01:21:44.490Z,2.87
2018-06-22T01:24:13.447Z,5.00
2018-06-22T01:26:42.106Z,1.87
2018-06-22T01:29:10.798Z,4.30
2018-06-22T01:31:39.511Z,2.17
2018-06-22T01:34:08.131Z,3.90
2018-06-22T01:36:36.796Z,4.27
2018-06-22T01:39:05.497Z,2.70
2018-06-22T01:41:34.196Z,2.43
2018-06-22T01:44:02.830Z,1.03
2018-06-22T01:46:31.483Z,1.43
2018-06-22T01:49:00.161Z,1.50
2018-06-22T01:51:28.809Z,2.77
2018-06-22T01:53:57.477Z,1.73
2018-06-22T01:56:26.098Z,2.87
2018-06-22T01:58:55.150Z,3.43
2018-06-22T02:01:24.398Z,4.87
2018-06-22T02:03:53.621Z,2.10
2018-06-22T02:06:22.522Z,3.30
2018-06-22T02:08:54.293Z,1.77
2018-06-22T02:11:23.111Z,4.27
2018-06-22T02:13:52.307Z,4.93
2018-06-22T02:16:21.602Z,2.90
2018-06-22T02:18:50.889Z,7.10
2018-06-22T02:21:19.815Z,5.50
2018-06-22T02:23:48.764Z,4.87
2018-06-22T02:26:17.879Z,4.47
2018-06-22T02:28:46.721Z,4.17
2018-06-22T02:31:15.691Z,7.53
2018-06-22T02:33:44.807Z,4.23
2018-06-22T02:36:13.663Z,3.07
2018-06-22T02:38:42.910Z,5.90
2018-06-22T02:41:12.585Z,7.37
2018-06-22T02:43:41.780Z,8.53
2018-06-22T02:46:10.675Z,3.10
2018-06-22T02:48:42.401Z,5.53
2018-06-22T02:51:11.449Z,8.13
2018-06-22T02:53:40.284Z,6.83
2018-06-22T02:56:09.394Z,6.73
2018-06-22T02:58:38.568Z,3.40
2018-06-22T03:01:07.770Z,5.87
2018-06-22T03:03:36.711Z,9.30
2018-06-22T03:06:05.671Z,4.13
2018-06-22T03:08:34.688Z,8.32
2018-06-22T03:11:04.150Z,11.95
2018-06-22T03:13:33.153Z,5.60
2018-06-22T03:16:02.158Z,4.60
2018-06-22T03:18:31.460Z,7.15
2018-06-22T03:21:00.592Z,4.90
2018-06-22T03:23:29.453Z,7.93
2018-06-22T03:25:58.818Z,4.87
2018-06-22T03:28:27.909Z,4.30
2018-06-22T03:30:56.962Z,5.50
2018-06-22T03:33:26.199Z,6.23
2018-06-22T03:35:57.321Z,9.03
2018-06-22T03:38:26.425Z,5.97
2018-06-22T03:40:55.986Z,5.53
2018-06-22T03:43:25.076Z,5.47
2018-06-22T03:45:54.781Z,7.70
2018-06-22T03:48:23.748Z,5.63
2018-06-22T03:50:53.224Z,5.77
2018-06-22T03:53:22.250Z,5.18
2018-06-22T03:55:51.193Z,3.63
2018-06-22T03:58:20.583Z,6.23
2018-06-22T04:00:49.504Z,9.13
2018-06-22T04:03:18.984Z,8.30
2018-06-22T04:05:47.969Z,6.62
2018-06-22T04:08:17.446Z,8.38
2018-06-22T04:10:46.353Z,4.63
2018-06-22T04:13:15.452Z,4.77
2018-06-22T04:15:45.342Z,8.17
2018-06-22T04:18:14.222Z,8.33
2018-06-22T04:20:43.496Z,4.00
2018-06-22T04:23:12.426Z,8.00
2018-06-22T04:25:41.653Z,7.70
2018-06-22T04:28:10.576Z,6.80
2018-06-22T04:30:39.093Z,8.77
2018-06-22T04:33:07.754Z,7.83
2018-06-22T04:35:36.486Z,6.03
2018-06-22T04:38:05.569Z,7.67
2018-06-22T04:40:36.628Z,6.50
2018-06-22T04:43:10.362Z,6.27
2018-06-22T04:45:39.447Z,5.23
2018-06-22T04:48:08.091Z,7.43
2018-06-22T04:50:36.776Z,7.53
2018-06-22T04:53:10.078Z,4.03
2018-06-22T04:55:38.810Z,5.43
2018-06-22T04:58:07.477Z,7.77
2018-06-22T05:00:36.185Z,5.00
2018-06-22T05:03:04.879Z,5.00
2018-06-22T05:05:33.586Z,7.03
2018-06-22T05:08:02.217Z,7.67
2018-06-22T05:10:30.951Z,5.60
2018-06-22T05:13:00.630Z,5.43
2018-06-22T05:15:29.268Z,4.37
2018-06-22T05:17:57.928Z,5.73
2018-06-22T05:20:26.561Z,5.03
2018-06-22T05:22:55.259Z,2.73
2018-06-22T05:25:23.983Z,4.37
2018-06-22T05:27:52.719Z,8.63
2018-06-22T05:30:21.585Z,3.00
2018-06-22T05:32:51.228Z,4.87
2018-06-22T05:35:23.404Z,3.30
2018-06-22T05:37:52.081Z,4.77
2018-06-22T05:40:23.899Z,4.17
2018-06-22T05:42:59.462Z,3.87
2018-06-22T05:45:30.272Z,3.77
2018-06-22T05:48:02.689Z,5.18
2018-06-22T05:50:32.902Z,2.70
2018-06-22T05:53:06.640Z,6.10
2018-06-22T05:55:36.413Z,5.68
2018-06-22T05:58:10.140Z,3.58
2018-06-22T06:00:41.218Z,3.43
2018-06-22T06:03:21.890Z,5.82
2018-06-22T06:06:00.983Z,4.17
2018-06-22T06:08:34.165Z,5.82
2018-06-22T06:11:04.839Z,4.20
2018-06-22T06:13:36.598Z,4.03
2018-06-22T06:16:08.322Z,5.15
2018-06-22T06:18:39.291Z,4.47
2018-06-22T06:21:08.323Z,3.83
2018-06-22T06:23:40.000Z,4.40
2018-06-22T06:26:09.473Z,4.07
2018-06-22T06:28:42.104Z,5.25
2018-06-22T06:31:16.537Z,4.00
2018-06-22T06:33:57.487Z,4.82
2018-06-22T06:36:28.687Z,6.50
2018-06-22T06:38:58.356Z,4.00
2018-06-22T06:41:27.465Z,7.05
2018-06-22T06:43:59.815Z,3.85
2018-06-22T06:46:28.762Z,5.35
2018-06-22T06:49:03.725Z,4.63
2018-06-22T06:51:35.621Z,3.37
2018-06-22T06:54:04.863Z,5.22
2018-06-22T06:56:34.453Z,5.47
2018-06-22T06:59:03.462Z,5.37
2018-06-22T07:01:32.784Z,4.90
2018-06-22T07:04:02.187Z,5.70
2018-06-22T07:06:32.626Z,10.32
2018-06-22T07:09:01.521Z,6.57
2018-06-22T07:11:30.607Z,4.47
2018-06-22T07:14:00.869Z,7.23
2018-06-22T07:16:30.090Z,5.40
2018-06-22T07:19:02.031Z,5.57
2018-06-22T07:21:34.445Z,6.53
2018-06-22T07:24:05.133Z,7.20
2018-06-22T07:26:31.914Z,4.97
2018-06-22T07:29:03.618Z,5.20
2018-06-22T07:31:32.704Z,5.77
2018-06-22T07:34:01.583Z,4.57
2018-06-22T07:36:30.480Z,4.25
2018-06-22T07:39:00.516Z,3.92
2018-06-22T07:41:34.602Z,5.35
2018-06-22T07:44:03.388Z,2.40
2018-06-22T07:46:32.670Z,3.78
2018-06-22T07:49:08.422Z,5.72
2018-06-22T07:51:38.713Z,5.20
2018-06-22T07:54:09.864Z,6.80
2018-06-22T07:56:42.279Z,3.53
2018-06-22T07:59:11.763Z,6.95
2018-06-22T08:01:40.870Z,4.93
2018-06-22T08:04:10.620Z,3.45
2018-06-22T08:06:39.922Z,3.40
2018-06-22T08:09:09.229Z,3.53
2018-06-22T08:11:39.466Z,7.97
2018-06-22T08:14:09.464Z,5.28
2018-06-22T08:16:38.488Z,5.22
2018-06-22T08:19:10.315Z,4.47
2018-06-22T08:21:39.355Z,6.53
2018-06-22T08:24:08.456Z,4.05
2018-06-22T08:26:38.561Z,6.00
2018-06-22T08:29:07.880Z,3.00
2018-06-22T08:31:36.883Z,6.20
2018-06-22T08:34:07.321Z,3.00
2018-06-22T08:36:37.267Z,4.22
2018-06-22T08:39:06.269Z,4.87
2018-06-22T08:41:35.255Z,5.30
2018-06-22T08:44:04.361Z,3.40
2018-06-22T08:46:33.272Z,4.20
2018-06-22T08:49:03.121Z,2.78
2018-06-22T08:51:32.989Z,3.40
2018-06-22T08:54:09.912Z,6.35
2018-06-22T08:56:38.613Z,3.08
2018-06-22T08:59:07.303Z,4.22
2018-06-22T09:02:49.356Z,4.25
2018-06-22T09:05:19.590Z,3.62
2018-06-22T09:07:48.270Z,2.37
2018-06-22T09:10:16.958Z,5.80
2018-06-22T09:12:45.691Z,2.03
2018-06-22T09:15:14.451Z,2.87
2018-06-22T09:17:43.396Z,2.15
2018-06-22T09:20:12.061Z,2.30
2018-06-22T09:22:40.762Z,3.72
2018-06-22T09:25:12.112Z,2.15
2018-06-22T09:27:40.845Z,0.93
2018-06-22T09:30:09.519Z,2.17
2018-06-22T09:32:38.232Z,5.57
2018-06-22T09:35:06.934Z,1.02
2018-06-22T09:37:35.823Z,2.55
2018-06-22T09:40:04.540Z,2.33
2018-06-22T09:42:33.270Z,1.45
2018-06-22T09:45:02.250Z,1.15
2018-06-22T09:47:30.836Z,2.10
2018-06-22T09:49:59.833Z,1.73
2018-06-22T09:52:32.614Z,1.73
2018-06-22T09:55:01.416Z,0.82
2018-06-22T09:57:30.537Z,1.10
2018-06-22T09:59:59.768Z,1.37
2018-06-22T10:02:31.178Z,1.25
2018-06-22T10:04:59.844Z,1.95
2018-06-22T10:07:28.849Z,0.70
2018-06-22T10:09:57.660Z,0.43
2018-06-22T10:12:33.047Z,0.32
2018-06-22T10:15:01.792Z,0.15
2018-06-22T10:17:30.471Z,0.20
2018-06-22T10:20:02.700Z,1.25
2018-06-22T10:22:31.792Z,0.22
2018-06-22T10:25:00.486Z,0.10
2018-06-22T10:27:29.158Z,2.65
2018-06-22T10:29:58.502Z,2.03
2018-06-22T10:32:27.554Z,0.80
2018-06-22T10:34:56.928Z,1.00
2018-06-22T10:37:25.924Z,0.45
2018-06-22T10:39:54.694Z,0.28
2018-06-22T10:42:23.908Z,0.85
2018-06-22T10:44:53.223Z,0.80
2018-06-22T10:47:21.949Z,1.20
2018-06-22T10:49:50.675Z,0.30
2018-06-22T10:52:19.335Z,0.57
2018-06-22T10:54:48.010Z,0.37
2018-06-22T10:57:16.663Z,2.50
2018-06-22T10:59:45.455Z,0.50
2018-06-22T11:02:14.104Z,0.80
2018-06-22T11:04:42.868Z,1.25
2018-06-22T11:07:11.502Z,3.40
2018-06-22T11:09:40.599Z,1.75
2018-06-22T11:12:10.915Z,0.47
2018-06-22T11:14:40.239Z,1.60
2018-06-22T11:17:09.009Z,0.88
2018-06-22T11:19:37.617Z,0.28
2018-06-22T11:22:06.406Z,0.57
2018-06-22T11:24:35.197Z,0.62
2018-06-22T11:27:03.796Z,0.73
2018-06-22T11:29:33.037Z,0.35
2018-06-22T11:32:01.679Z,0.95
2018-06-22T11:34:31.152Z,0.40
2018-06-22T11:36:59.869Z,0.65
2018-06-22T11:39:28.562Z,0.82
2018-06-22T11:42:00.336Z,0.77
2018-06-22T11:44:29.058Z,2.70
2018-06-22T11:46:57.798Z,0.20
2018-06-22T11:49:28.277Z,1.20
2018-06-22T11:51:57.432Z,1.20
2018-06-22T11:54:26.141Z,3.12
2018-06-22T11:57:07.074Z,3.20
2018-06-22T11:59:37.540Z,1.37
2018-06-22T12:02:06.187Z,2.80
2018-06-22T12:04:41.074Z,2.08
2018-06-22T12:07:31.664Z,0.40
2018-06-22T12:10:03.352Z,1.98
2018-06-22T12:12:32.610Z,2.22
2018-06-22T12:15:02.908Z,0.60
2018-06-22T12:17:34.976Z,0.50
2018-06-22T12:20:06.019Z,2.17
2018-06-22T12:22:36.333Z,0.45
2018-06-22T12:25:07.030Z,2.40
2018-06-22T12:27:37.233Z,1.75
2018-06-22T12:30:06.369Z,3.97
2018-06-22T12:32:36.694Z,2.45
2018-06-22T12:35:07.317Z,0.60
2018-06-22T12:37:41.202Z,2.75
2018-06-22T12:40:10.633Z,5.05
2018-06-22T12:42:40.656Z,4.37
2018-06-22T12:45:14.212Z,4.40
2018-06-22T12:47:43.735Z,1.48
2018-06-22T12:50:14.045Z,1.95
2018-06-22T12:52:43.099Z,1.00
2018-06-22T12:55:14.696Z,2.55
2018-06-22T12:57:45.884Z,0.88
2018-06-22T13:00:15.202Z,1.60
2018-06-22T13:02:46.817Z,1.33
2018-06-22T13:05:16.866Z,0.40
2018-06-22T13:07:50.793Z,1.55
2018-06-22T13:10:22.080Z,0.95
2018-06-22T13:12:52.373Z,3.85
2018-06-22T13:15:25.452Z,1.37
2018-06-22T13:17:54.349Z,3.78
2018-06-22T13:20:27.513Z,3.67
2018-06-22T13:22:56.536Z,1.45
2018-06-22T13:25:33.284Z,1.67
2018-06-22T13:28:05.270Z,3.67
2018-06-22T13:30:37.040Z,1.02
2018-06-22T13:33:05.924Z,1.05
2018-06-22T13:35:36.262Z,3.97
2018-06-22T13:38:05.216Z,3.58
2018-06-22T13:40:35.660Z,2.35
2018-06-22T13:43:08.655Z,3.13
2018-06-22T13:45:38.174Z,1.62
2018-06-22T13:48:08.356Z,4.40
2018-06-22T13:50:47.439Z,2.45
2018-06-22T13:53:17.625Z,3.40
2018-06-22T13:55:47.801Z,1.65
2018-06-22T13:58:16.848Z,5.47
2018-06-22T14:00:47.335Z,3.75
2018-06-22T14:03:15.992Z,3.35
2018-06-22T14:05:47.354Z,2.45
2018-06-22T14:08:16.035Z,4.20
2018-06-22T14:10:44.745Z,5.30
2018-06-22T14:13:13.386Z,14.45
2018-06-22T14:15:42.552Z,2.37
2018-06-22T14:18:17.723Z,2.33
2018-06-22T14:20:47.004Z,2.47
2018-06-22T14:23:15.748Z,5.55
2018-06-22T14:25:44.438Z,15.10
2018-06-22T14:28:13.441Z,4.18
2018-06-22T14:30:42.314Z,7.43
2018-06-22T14:33:11.007Z,10.38
2018-06-22T14:35:39.725Z,4.93
2018-06-22T14:38:08.477Z,7.70
2018-06-22T14:40:37.159Z,8.50
2018-06-22T14:43:05.955Z,13.68
2018-06-22T14:45:34.585Z,6.68
2018-06-22T14:48:03.589Z,6.22
2018-06-22T14:50:32.342Z,9.13
2018-06-22T14:53:00.955Z,9.85
2018-06-22T14:55:33.179Z,5.25
2018-06-22T14:58:07.887Z,3.50
2018-06-22T15:00:54.379Z,4.82
2018-06-22T15:03:26.212Z,5.15
2018-06-22T15:05:58.003Z,6.15
2018-06-22T15:08:26.665Z,10.63
2018-06-22T15:10:55.391Z,4.55
2018-06-22T15:13:24.700Z,10.48
2018-06-22T15:15:54.631Z,4.93
2018-06-22T15:18:24.145Z,2.92
2018-06-22T15:20:53.435Z,4.78
2018-06-22T15:23:22.362Z,10.50
2018-06-22T15:25:52.022Z,9.10
2018-06-22T15:28:20.898Z,3.95
2018-06-22T15:30:49.624Z,5.50
2018-06-22T15:33:18.312Z,3.28
2018-06-22T15:35:56.216Z,4.68
2018-06-22T15:38:42.953Z,5.78
2018-06-22T15:41:29.859Z,5.12
2018-06-22T15:44:16.749Z,6.00
2018-06-22T15:46:58.502Z,4.75
2018-06-22T15:49:30.282Z,4.57
2018-06-22T15:52:17.209Z,4.93
2018-06-22T15:54:49.796Z,7.40
2018-06-22T15:57:18.509Z,7.87
2018-06-22T15:59:47.266Z,12.07
2018-06-22T16:02:15.962Z,6.15
2018-06-22T16:04:44.632Z,3.03
2018-06-22T16:07:13.829Z,6.00
2018-06-22T16:09:42.544Z,8.35
2018-06-22T16:12:11.365Z,7.43
2018-06-22T16:14:40.056Z,14.57
2018-06-22T16:17:27.693Z,7.87
2018-06-22T16:20:02.033Z,6.77
2018-06-22T16:22:48.703Z,10.30
2018-06-22T16:25:29.461Z,5.60
2018-06-22T16:28:01.091Z,7.35
2018-06-22T16:30:29.881Z,2.40
2018-06-22T16:32:58.966Z,3.95
2018-06-22T16:35:30.813Z,1.00
2018-06-22T16:37:59.594Z,2.10
2018-06-22T16:40:28.251Z,1.23
2018-06-22T16:42:56.926Z,1.05
2018-06-22T16:45:25.975Z,3.90
2018-06-22T16:47:54.648Z,2.90
2018-06-22T16:50:23.305Z,2.15
2018-06-22T16:52:55.389Z,1.70
2018-06-22T16:55:25.643Z,3.55
2018-06-22T16:57:54.375Z,4.07
2018-06-22T17:00:23.042Z,2.17
2018-06-22T17:02:51.812Z,3.33
2018-06-22T17:05:20.458Z,9.10
2018-06-22T17:07:58.189Z,14.25
2018-06-22T17:10:30.010Z,5.95
2018-06-22T17:13:07.420Z,3.20
2018-06-22T17:15:36.087Z,2.65
2018-06-22T17:18:07.788Z,4.25
2018-06-22T17:20:36.420Z,4.95
2018-06-22T17:23:05.128Z,2.10
2018-06-22T17:25:36.681Z,2.15
2018-06-22T17:28:05.435Z,5.75
2018-06-22T17:30:34.200Z,3.00
2018-06-22T17:33:02.892Z,5.25
2018-06-22T17:35:31.568Z,3.53
2018-06-22T17:38:00.229Z,6.85
2018-06-22T17:40:29.000Z,15.13
2018-06-22T17:42:57.721Z,12.10
2018-06-22T17:45:26.329Z,7.32
2018-06-22T17:47:55.021Z,4.93
2018-06-22T17:50:23.677Z,12.70
2018-06-22T17:52:52.396Z,7.82
2018-06-22T17:55:21.077Z,5.22
2018-06-22T17:57:49.776Z,6.60
2018-06-22T18:00:18.436Z,3.40
2018-06-22T18:02:53.139Z,4.20
2018-06-22T18:05:22.403Z,3.95
2018-06-22T18:07:51.102Z,4.05
2018-06-22T18:10:19.761Z,3.28
2018-06-22T18:12:48.502Z,5.90
2018-06-22T18:15:17.120Z,2.87
2018-06-22T18:17:45.903Z,4.22
2018-06-22T18:20:14.607Z,4.40
2018-06-22T18:22:43.400Z,2.75
2018-06-22T18:25:11.987Z,4.20
2018-06-22T18:27:40.676Z,3.72
2018-06-22T18:30:09.346Z,4.60
2018-06-22T18:32:38.060Z,3.20
2018-06-22T18:35:06.716Z,7.47
2018-06-22T18:37:37.989Z,4.10
2018-06-22T18:40:04.153Z,8.68
2018-06-22T18:42:32.859Z,9.30
2018-06-22T18:45:01.622Z,5.87
2018-06-22T18:47:30.406Z,10.93
2018-06-22T18:49:59.101Z,15.27
2018-06-22T18:52:27.798Z,14.75
2018-06-22T18:55:14.430Z,10.82
2018-06-22T18:57:45.987Z,16.00
2018-06-22T19:00:22.415Z,11.65
2018-06-22T19:02:51.233Z,7.95
2018-06-22T19:05:20.052Z,13.90
2018-06-22T19:07:50.769Z,9.40
2018-06-22T19:10:20.512Z,10.90
2018-06-22T19:12:49.221Z,9.40
2018-06-22T19:15:17.883Z,6.50
2018-06-22T19:17:46.655Z,11.98
2018-06-22T19:20:15.317Z,12.55
2018-06-22T19:22:44.005Z,8.85
2018-06-22T19:25:12.785Z,14.20
2018-06-22T19:27:42.204Z,9.98
2018-06-22T19:30:10.876Z,6.35
2018-06-22T19:32:39.669Z,15.73
2018-06-22T19:35:08.349Z,10.20
2018-06-22T19:37:37.037Z,5.50
2018-06-22T19:40:05.690Z,6.47
2018-06-22T19:42:34.402Z,3.83
2018-06-22T19:45:03.041Z,10.10
2018-06-22T19:47:49.942Z,10.13
2018-06-22T19:50:18.519Z,7.03
2018-06-22T19:52:59.181Z,8.85
2018-06-22T19:55:27.849Z,7.93
2018-06-22T19:57:56.535Z,8.05
2018-06-22T20:00:25.213Z,8.52
2018-06-22T20:02:53.898Z,9.93
2018-06-22T20:05:22.581Z,8.10
2018-06-22T20:07:51.276Z,5.03
2018-06-22T20:10:19.923Z,6.23
2018-06-22T20:12:48.918Z,8.10
2018-06-22T20:15:17.620Z,7.37
2018-06-22T20:17:46.364Z,6.80
2018-06-22T20:20:15.026Z,13.87
2018-06-22T20:22:44.168Z,11.73
2018-06-22T20:25:13.260Z,8.80
2018-06-22T20:27:41.955Z,8.50
2018-06-22T20:30:10.679Z,11.07
2018-06-22T20:32:39.330Z,8.50
2018-06-22T20:35:08.041Z,8.13
2018-06-22T20:37:42.701Z,9.13
2018-06-22T20:40:23.466Z,7.90
2018-06-22T20:42:52.825Z,10.98
2018-06-22T20:45:37.050Z,7.23
2018-06-22T20:48:23.832Z,10.23
2018-06-22T20:50:52.556Z,12.90
2018-06-22T20:53:31.925Z,11.23
2018-06-22T20:56:00.646Z,8.23
2018-06-22T20:58:30.744Z,9.50
2018-06-22T21:00:59.490Z,11.17
2018-06-22T21:03:28.111Z,8.93
2018-06-22T21:05:56.776Z,9.37
2018-06-22T21:08:25.522Z,10.38
2018-06-22T21:10:54.172Z,10.13
2018-06-22T21:13:23.989Z,9.00
2018-06-22T21:15:52.600Z,9.03
2018-06-22T21:18:21.406Z,8.10
2018-06-22T21:20:50.096Z,6.63
2018-06-22T21:23:18.794Z,9.65
2018-06-22T21:25:47.518Z,13.33
2018-06-22T21:28:25.444Z,7.47
2018-06-22T21:31:12.363Z,10.33
2018-06-22T21:33:41.071Z,8.20
2018-06-22T21:36:09.850Z,7.20
2018-06-22T21:38:41.127Z,10.10
2018-06-22T21:41:09.899Z,10.33
2018-06-22T21:43:38.597Z,8.57
2018-06-22T21:46:07.242Z,4.70
2018-06-22T21:48:35.922Z,7.67
2018-06-22T21:51:04.613Z,6.87
2018-06-22T21:53:33.316Z,8.85
2018-06-22T21:56:02.040Z,15.83
2018-06-22T21:58:30.783Z,9.88
2018-06-22T22:00:59.481Z,6.77
2018-06-22T22:03:28.226Z,5.73
2018-06-22T22:05:56.891Z,9.17
2018-06-22T22:08:25.571Z,5.50
2018-06-22T22:10:54.242Z,6.27
2018-06-22T22:13:22.951Z,8.32
2018-06-22T22:15:51.603Z,12.27
2018-06-22T22:18:20.241Z,6.50
2018-06-22T22:20:48.955Z,12.23
2018-06-22T22:23:17.792Z,13.53
2018-06-22T22:25:49.313Z,8.45
2018-06-22T22:28:17.981Z,6.17
2018-06-22T22:30:46.685Z,10.95
2018-06-22T22:33:15.342Z,10.37
2018-06-22T22:35:45.004Z,8.50
2018-06-22T22:38:14.239Z,8.73
2018-06-22T22:40:42.948Z,7.80
2018-06-22T22:43:11.733Z,7.87
2018-06-22T22:45:40.545Z,10.73
2018-06-22T22:48:09.185Z,8.77
2018-06-22T22:50:37.906Z,8.40
2018-06-22T22:53:07.673Z,9.55
2018-06-22T22:55:36.412Z,8.52
2018-06-22T22:58:05.179Z,10.07
2018-06-22T23:00:33.964Z,8.85
2018-06-22T23:03:02.636Z,7.20
2018-06-22T23:05:31.590Z,7.07
2018-06-22T23:08:03.069Z,14.10
2018-06-22T23:10:31.616Z,13.23
2018-06-22T23:13:00.330Z,6.67
2018-06-22T23:15:29.447Z,9.77
2018-06-22T23:17:58.681Z,10.25
2018-06-22T23:20:29.518Z,8.20
2018-06-22T23:23:30.108Z,7.40
2018-06-22T23:26:00.603Z,11.20
2018-06-22T23:28:29.541Z,6.93
2018-06-22T23:30:58.992Z,9.37
2018-06-22T23:33:29.874Z,8.80
2018-06-22T23:35:59.127Z,9.53
2018-06-22T23:38:28.723Z,5.37
2018-06-22T23:40:57.624Z,10.13
2018-06-22T23:43:26.521Z,10.50
2018-06-22T23:45:55.931Z,7.07
2018-06-22T23:48:25.356Z,5.33
2018-06-22T23:50:54.885Z,7.93
2018-06-22T23:53:23.979Z,8.37
2018-06-22T23:55:52.793Z,9.23
2018-06-22T23:58:22.122Z,9.97
